»·PEaware :: N6594J KAMA-KAMA

N6594J :: KAMA-KAMA

FLIGHT INFORMATION

Flight Status: Arrived
Operator: Privately registered:
United States
More flights under this callsign
Pilot: Hub City Aviation Academy (12996)
Aircraft: PIPER PA-28 CHEROKEE ARCHER
(P28A)
More flights by this aircraft type
Origin: KAMA Amarillo Intl
United States
Destination: KAMA Amarillo Intl
United States
More flights between these airports :: More routes between these airports
Route: +PNH
File this flight plan on PilotEdge
Remarks: multiple approaches
Altitude:
(Current/Filed)
6,000ft
Speed:
(Current/Filed)
110kts
Departed: 31-Jul-17 08:01 AM
Arrived: 31-Jul-17 09:02 AM
Distance/Time
Traveled:
1nm/1:01
Distance/Time
To Go:
Arrived

Flight Plot

Page will automatically refresh every two minutes.

Flight plan parsing failed; only flown route is shown


Map Options




Map Legend


Flown Route
Filed Route
Departure Airport
Arrival Airport
Navaid (VOR, NDB)
Fix

Horizontal Profiles

Position Reports

Time Latitude Longitude Heading Altitude Ground
Speed
31-Jul-17 07:53 35.218537 -101.707956 326 3610ft 0kts
31-Jul-17 07:54 35.218537 -101.707956 326 3610ft 0kts
31-Jul-17 07:55 35.218537 -101.707956 326 3610ft 0kts
31-Jul-17 07:56 35.218538 -101.707957 326 3610ft 0kts
31-Jul-17 07:57 35.218539 -101.707958 326 3610ft 0kts
31-Jul-17 07:58 35.219145 -101.710561 291 3610ft 5kts
31-Jul-17 07:59 35.221369 -101.708442 46 3610ft 19kts
31-Jul-17 08:00 35.224441 -101.704530 46 3610ft 17kts
31-Jul-17 08:01 35.228010 -101.699996 46 3610ft 13kts
31-Jul-17 08:02 35.229756 -101.699296 317 3610ft 0kts
31-Jul-17 08:03 35.230570 -101.700473 260 3610ft 2kts
31-Jul-17 08:04 35.219159 -101.714497 227 3826ft 96kts
31-Jul-17 08:05 35.198762 -101.737431 219 4538ft 102kts
31-Jul-17 08:06 35.174596 -101.758549 213 5097ft 107kts
31-Jul-17 08:07 35.148137 -101.759263 120 5571ft 106kts
31-Jul-17 08:08 35.142897 -101.724327 94 5975ft 108kts
31-Jul-17 08:09 35.138610 -101.684839 94 5987ft 121kts
31-Jul-17 08:10 35.153975 -101.651379 49 5986ft 117kts
31-Jul-17 08:11 35.156402 -101.611267 89 5983ft 121kts
31-Jul-17 08:12 35.154731 -101.570022 89 5981ft 121kts
31-Jul-17 08:13 35.169262 -101.536621 35 5989ft 116kts
31-Jul-17 08:14 35.193595 -101.510094 41 5981ft 117kts
31-Jul-17 08:15 35.217155 -101.482702 41 5982ft 117kts
31-Jul-17 08:16 35.240800 -101.455108 41 5641ft 115kts
31-Jul-17 08:17 35.265370 -101.436200 351 5364ft 101kts
31-Jul-17 08:18 35.289756 -101.450977 331 5390ft 101kts
31-Jul-17 08:19 35.316106 -101.468971 331 5385ft 112kts
31-Jul-17 08:20 35.320988 -101.502558 246 5398ft 119kts
31-Jul-17 08:21 35.305072 -101.538501 243 5381ft 120kts
31-Jul-17 08:22 35.288814 -101.574393 243 5382ft 120kts
31-Jul-17 08:23 35.272691 -101.609927 242 5324ft 119kts
31-Jul-17 08:24 35.257083 -101.644257 243 4498ft 113kts
31-Jul-17 08:25 35.242262 -101.677153 243 3964ft 103kts
31-Jul-17 08:26 35.231310 -101.699680 231 3769ft 101kts
31-Jul-17 08:27 35.216636 -101.718154 227 4115ft 102kts
31-Jul-17 08:28 35.196428 -101.740556 204 4795ft 105kts
31-Jul-17 08:29 35.175126 -101.721721 114 5383ft 102kts
31-Jul-17 08:30 35.167637 -101.685638 104 5406ft 117kts
31-Jul-17 08:31 35.156880 -101.648106 106 5380ft 116kts
31-Jul-17 08:32 35.145895 -101.611039 106 5382ft 116kts
31-Jul-17 08:33 35.134875 -101.573866 106 5382ft 115kts
31-Jul-17 08:34 35.123923 -101.537011 106 5381ft 115kts
31-Jul-17 08:35 35.112910 -101.500071 106 5381ft 116kts
31-Jul-17 08:36 35.094268 -101.470900 167 5380ft 118kts
31-Jul-17 08:37 35.079004 -101.445739 72 5396ft 111kts
31-Jul-17 08:38 35.086991 -101.408701 73 5380ft 113kts
31-Jul-17 08:39 35.071905 -101.387089 177 5393ft 117kts
31-Jul-17 08:40 35.059841 -101.414793 306 5395ft 108kts
31-Jul-17 08:41 35.079587 -101.443009 307 5382ft 110kts
31-Jul-17 08:42 35.097098 -101.473802 306 5381ft 110kts
31-Jul-17 08:43 35.117732 -101.498929 0 5388ft 106kts
31-Jul-17 08:44 35.124825 -101.469678 112 5392ft 116kts
31-Jul-17 08:45 35.110238 -101.434035 113 5381ft 116kts
31-Jul-17 08:46 35.094219 -101.399707 116 5385ft 116kts
31-Jul-17 08:47 35.069359 -101.381865 207 5392ft 117kts
31-Jul-17 08:48 35.065869 -101.416167 297 5387ft 111kts
31-Jul-17 08:49 35.082151 -101.447975 306 5388ft 109kts
31-Jul-17 08:50 35.098654 -101.478652 312 5754ft 106kts
31-Jul-17 08:51 35.119177 -101.504959 315 5994ft 111kts
31-Jul-17 08:52 35.141433 -101.533503 315 5982ft 117kts
31-Jul-17 08:53 35.167911 -101.551648 10 6001ft 113kts
31-Jul-17 08:54 35.197141 -101.534978 26 5981ft 117kts
31-Jul-17 08:55 35.225959 -101.516747 25 5981ft 116kts
31-Jul-17 08:56 35.255439 -101.500627 1 5975ft 116kts
31-Jul-17 08:57 35.279963 -101.523400 316 5627ft 110kts
31-Jul-17 08:58 35.301499 -101.550297 316 5168ft 108kts
31-Jul-17 08:59 35.307979 -101.581938 247 4985ft 105kts
31-Jul-17 09:00 35.295851 -101.613896 247 4979ft 102kts
31-Jul-17 09:01 35.280199 -101.642445 219 4992ft 103kts
31-Jul-17 09:02 35.259006 -101.668160 225 4624ft 117kts
31-Jul-17 09:03 35.233951 -101.695175 225 3848ft 115kts
31-Jul-17 09:04 35.217086 -101.717855 227 3610ft 51kts
31-Jul-17 09:05 35.211757 -101.723910 165 3610ft 6kts

Navigation Log

Ident Type
Flight plan parsing failed, navigation log unavailable